sensor_id;sensor_type;location;lat;lon;timestamp;P1;durP1;ratioP1;P2;durP2;ratioP2
41426;SDS011;27171;51.812;19.514;2023-03-30T00:01:33;12.93;;;7.43;;
41426;SDS011;27171;51.812;19.514;2023-03-30T00:07:35;13.73;;;6.40;;
41426;SDS011;27171;51.812;19.514;2023-03-30T00:10:36;15.25;;;8.27;;
41426;SDS011;27171;51.812;19.514;2023-03-30T00:16:39;10.88;;;6.72;;
41426;SDS011;27171;51.812;19.514;2023-03-30T00:19:40;12.55;;;6.93;;
41426;SDS011;27171;51.812;19.514;2023-03-30T00:25:43;15.38;;;7.75;;
41426;SDS011;27171;51.812;19.514;2023-03-30T00:28:44;11.82;;;6.70;;
41426;SDS011;27171;51.812;19.514;2023-03-30T00:31:46;13.70;;;7.05;;
41426;SDS011;27171;51.812;19.514;2023-03-30T00:34:48;13.52;;;6.88;;
41426;SDS011;27171;51.812;19.514;2023-03-30T00:40:59;11.73;;;6.18;;
41426;SDS011;27171;51.812;19.514;2023-03-30T00:44:08;11.93;;;6.97;;
41426;SDS011;27171;51.812;19.514;2023-03-30T00:47:42;12.23;;;6.78;;
41426;SDS011;27171;51.812;19.514;2023-03-30T00:50:51;11.93;;;6.45;;
41426;SDS011;27171;51.812;19.514;2023-03-30T00:54:01;11.57;;;5.72;;
41426;SDS011;27171;51.812;19.514;2023-03-30T00:57:07;15.27;;;6.65;;
41426;SDS011;27171;51.812;19.514;2023-03-30T01:06:15;11.88;;;5.53;;
41426;SDS011;27171;51.812;19.514;2023-03-30T01:09:18;10.43;;;6.05;;
41426;SDS011;27171;51.812;19.514;2023-03-30T01:15:20;12.45;;;5.93;;
41426;SDS011;27171;51.812;19.514;2023-03-30T01:21:56;12.07;;;6.18;;
41426;SDS011;27171;51.812;19.514;2023-03-30T01:32:22;10.02;;;6.68;;
41426;SDS011;27171;51.812;19.514;2023-03-30T01:45:23;10.47;;;5.90;;
41426;SDS011;27171;51.812;19.514;2023-03-30T01:48:38;11.48;;;5.90;;
41426;SDS011;27171;51.812;19.514;2023-03-30T01:55:01;9.73;;;5.57;;
41426;SDS011;27171;51.812;19.514;2023-03-30T01:58:31;11.15;;;6.20;;
41426;SDS011;27171;51.812;19.514;2023-03-30T02:01:34;9.50;;;5.57;;
41426;SDS011;27171;51.812;19.514;2023-03-30T02:04:38;11.60;;;6.15;;
41426;SDS011;27171;51.812;19.514;2023-03-30T02:07:41;11.45;;;5.68;;
41426;SDS011;27171;51.812;19.514;2023-03-30T02:10:49;10.25;;;5.55;;
41426;SDS011;27171;51.812;19.514;2023-03-30T02:13:53;12.00;;;5.95;;
41426;SDS011;27171;51.812;19.514;2023-03-30T02:17:00;13.52;;;5.55;;
41426;SDS011;27171;51.812;19.514;2023-03-30T02:23:08;9.27;;;5.18;;
41426;SDS011;27171;51.812;19.514;2023-03-30T02:29:11;9.93;;;5.18;;
41426;SDS011;27171;51.812;19.514;2023-03-30T02:32:18;8.18;;;5.32;;
41426;SDS011;27171;51.812;19.514;2023-03-30T02:45:39;9.25;;;5.78;;
41426;SDS011;27171;51.812;19.514;2023-03-30T02:49:04;10.50;;;5.50;;
41426;SDS011;27171;51.812;19.514;2023-03-30T02:52:14;8.73;;;5.03;;
41426;SDS011;27171;51.812;19.514;2023-03-30T02:59:20;8.70;;;5.10;;
41426;SDS011;27171;51.812;19.514;2023-03-30T03:02:30;9.30;;;5.70;;
41426;SDS011;27171;51.812;19.514;2023-03-30T03:05:53;11.85;;;5.10;;
41426;SDS011;27171;51.812;19.514;2023-03-30T03:12:05;7.35;;;4.63;;
41426;SDS011;27171;51.812;19.514;2023-03-30T03:15:10;9.38;;;5.22;;
41426;SDS011;27171;51.812;19.514;2023-03-30T03:18:21;8.85;;;4.88;;
41426;SDS011;27171;51.812;19.514;2023-03-30T03:21:24;8.00;;;4.10;;
41426;SDS011;27171;51.812;19.514;2023-03-30T03:27:38;9.13;;;4.78;;
41426;SDS011;27171;51.812;19.514;2023-03-30T03:30:51;10.05;;;5.65;;
41426;SDS011;27171;51.812;19.514;2023-03-30T03:33:56;7.82;;;4.70;;
41426;SDS011;27171;51.812;19.514;2023-03-30T03:37:08;8.48;;;4.70;;
41426;SDS011;27171;51.812;19.514;2023-03-30T03:40:10;8.35;;;4.55;;
41426;SDS011;27171;51.812;19.514;2023-03-30T03:43:11;9.05;;;5.20;;
41426;SDS011;27171;51.812;19.514;2023-03-30T03:52:15;7.15;;;3.78;;
41426;SDS011;27171;51.812;19.514;2023-03-30T03:55:16;7.65;;;4.55;;
41426;SDS011;27171;51.812;19.514;2023-03-30T03:58:17;8.63;;;4.63;;
41426;SDS011;27171;51.812;19.514;2023-03-30T04:01:19;8.02;;;4.20;;
41426;SDS011;27171;51.812;19.514;2023-03-30T04:04:20;5.63;;;4.22;;
41426;SDS011;27171;51.812;19.514;2023-03-30T04:10:22;7.07;;;4.35;;
41426;SDS011;27171;51.812;19.514;2023-03-30T04:13:40;8.38;;;4.18;;
41426;SDS011;27171;51.812;19.514;2023-03-30T04:16:51;7.75;;;4.55;;
41426;SDS011;27171;51.812;19.514;2023-03-30T04:20:07;8.38;;;4.65;;
41426;SDS011;27171;51.812;19.514;2023-03-30T04:23:34;7.43;;;4.70;;
41426;SDS011;27171;51.812;19.514;2023-03-30T04:27:04;7.55;;;4.95;;
41426;SDS011;27171;51.812;19.514;2023-03-30T04:30:25;10.48;;;4.47;;
41426;SDS011;27171;51.812;19.514;2023-03-30T04:33:40;8.48;;;4.55;;
41426;SDS011;27171;51.812;19.514;2023-03-30T04:36:55;7.38;;;4.65;;
41426;SDS011;27171;51.812;19.514;2023-03-30T04:40:17;7.28;;;4.20;;
41426;SDS011;27171;51.812;19.514;2023-03-30T04:43:32;9.77;;;4.82;;
41426;SDS011;27171;51.812;19.514;2023-03-30T04:46:43;6.95;;;4.68;;
41426;SDS011;27171;51.812;19.514;2023-03-30T04:50:04;9.07;;;4.72;;
41426;SDS011;27171;51.812;19.514;2023-03-30T04:53:18;8.68;;;5.00;;
41426;SDS011;27171;51.812;19.514;2023-03-30T04:56:33;8.00;;;4.80;;
41426;SDS011;27171;51.812;19.514;2023-03-30T04:59:58;8.45;;;4.45;;
41426;SDS011;27171;51.812;19.514;2023-03-30T05:03:27;6.25;;;4.40;;
41426;SDS011;27171;51.812;19.514;2023-03-30T05:06:39;7.68;;;4.30;;
41426;SDS011;27171;51.812;19.514;2023-03-30T05:10:00;8.27;;;4.45;;
41426;SDS011;27171;51.812;19.514;2023-03-30T05:13:16;5.93;;;4.18;;
41426;SDS011;27171;51.812;19.514;2023-03-30T05:16:31;9.02;;;4.90;;
41426;SDS011;27171;51.812;19.514;2023-03-30T05:19:41;8.73;;;5.72;;
41426;SDS011;27171;51.812;19.514;2023-03-30T05:23:05;12.05;;;7.60;;
41426;SDS011;27171;51.812;19.514;2023-03-30T05:26:20;9.43;;;6.18;;
41426;SDS011;27171;51.812;19.514;2023-03-30T05:29:35;11.02;;;6.90;;
41426;SDS011;27171;51.812;19.514;2023-03-30T05:32:54;11.93;;;7.15;;
41426;SDS011;27171;51.812;19.514;2023-03-30T05:35:55;10.05;;;6.00;;
41426;SDS011;27171;51.812;19.514;2023-03-30T05:39:10;11.75;;;6.70;;
41426;SDS011;27171;51.812;19.514;2023-03-30T05:42:25;10.95;;;6.65;;
41426;SDS011;27171;51.812;19.514;2023-03-30T05:45:43;10.52;;;6.35;;
41426;SDS011;27171;51.812;19.514;2023-03-30T05:49:02;9.35;;;5.38;;
41426;SDS011;27171;51.812;19.514;2023-03-30T05:52:26;7.93;;;5.47;;
41426;SDS011;27171;51.812;19.514;2023-03-30T05:55:27;11.55;;;6.60;;
41426;SDS011;27171;51.812;19.514;2023-03-30T05:58:43;10.05;;;6.30;;
41426;SDS011;27171;51.812;19.514;2023-03-30T06:02:11;8.70;;;5.85;;
41426;SDS011;27171;51.812;19.514;2023-03-30T06:05:13;9.35;;;6.43;;
41426;SDS011;27171;51.812;19.514;2023-03-30T06:08:17;12.93;;;6.50;;
41426;SDS011;27171;51.812;19.514;2023-03-30T06:11:18;8.32;;;5.80;;
41426;SDS011;27171;51.812;19.514;2023-03-30T06:14:26;11.25;;;6.22;;
41426;SDS011;27171;51.812;19.514;2023-03-30T06:17:41;10.80;;;6.57;;
41426;SDS011;27171;51.812;19.514;2023-03-30T06:23:46;8.70;;;6.22;;
41426;SDS011;27171;51.812;19.514;2023-03-30T06:26:52;8.98;;;6.40;;
41426;SDS011;27171;51.812;19.514;2023-03-30T06:29:53;8.68;;;6.07;;
41426;SDS011;27171;51.812;19.514;2023-03-30T06:36:07;7.85;;;6.15;;
41426;SDS011;27171;51.812;19.514;2023-03-30T06:39:10;10.38;;;6.18;;
41426;SDS011;27171;51.812;19.514;2023-03-30T06:42:12;9.27;;;5.70;;
41426;SDS011;27171;51.812;19.514;2023-03-30T06:45:30;8.82;;;5.72;;
41426;SDS011;27171;51.812;19.514;2023-03-30T06:48:32;11.30;;;7.10;;
41426;SDS011;27171;51.812;19.514;2023-03-30T06:51:47;8.77;;;6.45;;
41426;SDS011;27171;51.812;19.514;2023-03-30T06:54:48;8.93;;;5.55;;
41426;SDS011;27171;51.812;19.514;2023-03-30T06:57:49;9.18;;;5.80;;
41426;SDS011;27171;51.812;19.514;2023-03-30T07:00:52;9.52;;;5.45;;
41426;SDS011;27171;51.812;19.514;2023-03-30T07:04:11;8.05;;;6.10;;
41426;SDS011;27171;51.812;19.514;2023-03-30T07:07:26;7.15;;;5.45;;
41426;SDS011;27171;51.812;19.514;2023-03-30T07:10:28;8.90;;;6.00;;
41426;SDS011;27171;51.812;19.514;2023-03-30T07:13:32;10.40;;;6.32;;
41426;SDS011;27171;51.812;19.514;2023-03-30T07:16:33;7.93;;;5.85;;
41426;SDS011;27171;51.812;19.514;2023-03-30T07:19:36;9.02;;;5.78;;
41426;SDS011;27171;51.812;19.514;2023-03-30T07:22:38;9.15;;;6.53;;
41426;SDS011;27171;51.812;19.514;2023-03-30T07:25:39;8.10;;;6.82;;
41426;SDS011;27171;51.812;19.514;2023-03-30T07:28:47;7.43;;;5.70;;
41426;SDS011;27171;51.812;19.514;2023-03-30T07:31:48;8.20;;;6.60;;
41426;SDS011;27171;51.812;19.514;2023-03-30T07:34:50;8.85;;;5.82;;
41426;SDS011;27171;51.812;19.514;2023-03-30T07:37:51;10.10;;;6.30;;
41426;SDS011;27171;51.812;19.514;2023-03-30T07:40:53;8.02;;;6.10;;
41426;SDS011;27171;51.812;19.514;2023-03-30T07:43:57;7.63;;;5.57;;
41426;SDS011;27171;51.812;19.514;2023-03-30T07:46:58;8.80;;;6.38;;
41426;SDS011;27171;51.812;19.514;2023-03-30T07:50:00;13.00;;;6.53;;
41426;SDS011;27171;51.812;19.514;2023-03-30T07:53:01;11.48;;;6.25;;
41426;SDS011;27171;51.812;19.514;2023-03-30T07:56:02;12.18;;;5.72;;
41426;SDS011;27171;51.812;19.514;2023-03-30T07:59:14;9.13;;;6.30;;
41426;SDS011;27171;51.812;19.514;2023-03-30T08:02:23;9.13;;;6.45;;
41426;SDS011;27171;51.812;19.514;2023-03-30T08:05:27;9.48;;;6.35;;
41426;SDS011;27171;51.812;19.514;2023-03-30T08:08:40;7.88;;;4.75;;
41426;SDS011;27171;51.812;19.514;2023-03-30T08:11:41;8.43;;;5.30;;
41426;SDS011;27171;51.812;19.514;2023-03-30T08:14:42;11.48;;;5.85;;
41426;SDS011;27171;51.812;19.514;2023-03-30T08:17:44;8.75;;;5.18;;
41426;SDS011;27171;51.812;19.514;2023-03-30T08:20:48;7.55;;;4.82;;
41426;SDS011;27171;51.812;19.514;2023-03-30T08:23:51;5.63;;;4.15;;
41426;SDS011;27171;51.812;19.514;2023-03-30T08:26:52;6.85;;;5.15;;
41426;SDS011;27171;51.812;19.514;2023-03-30T08:29:54;10.50;;;6.53;;
41426;SDS011;27171;51.812;19.514;2023-03-30T08:32:55;6.50;;;4.45;;
41426;SDS011;27171;51.812;19.514;2023-03-30T08:35:56;6.03;;;3.90;;
41426;SDS011;27171;51.812;19.514;2023-03-30T08:38:57;6.53;;;3.90;;
41426;SDS011;27171;51.812;19.514;2023-03-30T08:45:07;6.10;;;3.75;;
41426;SDS011;27171;51.812;19.514;2023-03-30T08:51:28;5.55;;;4.25;;
41426;SDS011;27171;51.812;19.514;2023-03-30T08:54:31;5.47;;;3.72;;
41426;SDS011;27171;51.812;19.514;2023-03-30T09:00:45;5.53;;;4.03;;
41426;SDS011;27171;51.812;19.514;2023-03-30T09:07:21;7.10;;;3.65;;
41426;SDS011;27171;51.812;19.514;2023-03-30T09:10:27;9.10;;;4.05;;
41426;SDS011;27171;51.812;19.514;2023-03-30T09:13:34;5.88;;;4.05;;
41426;SDS011;27171;51.812;19.514;2023-03-30T09:19:44;8.48;;;3.58;;
41426;SDS011;27171;51.812;19.514;2023-03-30T09:22:59;7.07;;;3.83;;
41426;SDS011;27171;51.812;19.514;2023-03-30T09:26:11;7.85;;;3.75;;
41426;SDS011;27171;51.812;19.514;2023-03-30T09:29:27;7.45;;;3.47;;
41426;SDS011;27171;51.812;19.514;2023-03-30T09:32:40;4.82;;;3.05;;
41426;SDS011;27171;51.812;19.514;2023-03-30T09:39:22;5.97;;;3.53;;
41426;SDS011;27171;51.812;19.514;2023-03-30T09:42:36;5.75;;;3.60;;
41426;SDS011;27171;51.812;19.514;2023-03-30T09:50:18;5.57;;;3.05;;
41426;SDS011;27171;51.812;19.514;2023-03-30T09:53:25;5.45;;;3.67;;
41426;SDS011;27171;51.812;19.514;2023-03-30T09:56:34;4.13;;;3.00;;
41426;SDS011;27171;51.812;19.514;2023-03-30T09:59:37;6.13;;;3.28;;
41426;SDS011;27171;51.812;19.514;2023-03-30T10:02:38;5.95;;;3.22;;
41426;SDS011;27171;51.812;19.514;2023-03-30T10:05:39;4.80;;;2.95;;
41426;SDS011;27171;51.812;19.514;2023-03-30T10:11:48;7.72;;;3.35;;
41426;SDS011;27171;51.812;19.514;2023-03-30T10:14:56;4.88;;;2.58;;
41426;SDS011;27171;51.812;19.514;2023-03-30T10:21:21;3.30;;;2.20;;
41426;SDS011;27171;51.812;19.514;2023-03-30T10:24:24;4.97;;;2.25;;
41426;SDS011;27171;51.812;19.514;2023-03-30T10:27:33;4.57;;;2.33;;
41426;SDS011;27171;51.812;19.514;2023-03-30T10:30:38;5.88;;;2.22;;
41426;SDS011;27171;51.812;19.514;2023-03-30T10:33:40;4.93;;;1.92;;
41426;SDS011;27171;51.812;19.514;2023-03-30T10:36:44;5.75;;;2.10;;
41426;SDS011;27171;51.812;19.514;2023-03-30T10:39:47;4.18;;;2.05;;
41426;SDS011;27171;51.812;19.514;2023-03-30T10:42:52;4.38;;;2.40;;
41426;SDS011;27171;51.812;19.514;2023-03-30T10:45:56;4.63;;;2.03;;
41426;SDS011;27171;51.812;19.514;2023-03-30T10:49:11;3.28;;;1.80;;
41426;SDS011;27171;51.812;19.514;2023-03-30T11:06:02;6.28;;;2.25;;
41426;SDS011;27171;51.812;19.514;2023-03-30T11:09:25;5.40;;;2.75;;
41426;SDS011;27171;51.812;19.514;2023-03-30T11:12:33;5.95;;;2.78;;
41426;SDS011;27171;51.812;19.514;2023-03-30T11:19:11;4.10;;;2.83;;
41426;SDS011;27171;51.812;19.514;2023-03-30T11:25:19;5.00;;;3.03;;
41426;SDS011;27171;51.812;19.514;2023-03-30T11:32:05;5.15;;;3.40;;
41426;SDS011;27171;51.812;19.514;2023-03-30T11:42:03;5.88;;;3.00;;
41426;SDS011;27171;51.812;19.514;2023-03-30T11:48:28;8.40;;;3.97;;
41426;SDS011;27171;51.812;19.514;2023-03-30T11:59:04;6.45;;;3.45;;
41426;SDS011;27171;51.812;19.514;2023-03-30T12:05:45;4.47;;;3.10;;
41426;SDS011;27171;51.812;19.514;2023-03-30T12:09:05;5.22;;;3.30;;
41426;SDS011;27171;51.812;19.514;2023-03-30T12:12:11;5.97;;;4.05;;
41426;SDS011;27171;51.812;19.514;2023-03-30T12:22:02;6.13;;;3.67;;
41426;SDS011;27171;51.812;19.514;2023-03-30T12:28:49;5.45;;;2.80;;
41426;SDS011;27171;51.812;19.514;2023-03-30T12:34:56;5.05;;;2.92;;
41426;SDS011;27171;51.812;19.514;2023-03-30T12:37:58;4.15;;;3.03;;
41426;SDS011;27171;51.812;19.514;2023-03-30T12:41:12;5.03;;;3.05;;
41426;SDS011;27171;51.812;19.514;2023-03-30T13:00:53;6.63;;;3.65;;
41426;SDS011;27171;51.812;19.514;2023-03-30T13:04:08;5.43;;;3.08;;
41426;SDS011;27171;51.812;19.514;2023-03-30T13:07:31;7.35;;;3.85;;
41426;SDS011;27171;51.812;19.514;2023-03-30T13:10:37;5.28;;;3.47;;
41426;SDS011;27171;51.812;19.514;2023-03-30T13:13:45;5.25;;;2.80;;
41426;SDS011;27171;51.812;19.514;2023-03-30T13:26:25;5.03;;;3.03;;
41426;SDS011;27171;51.812;19.514;2023-03-30T13:29:27;5.20;;;3.20;;
41426;SDS011;27171;51.812;19.514;2023-03-30T13:39:13;5.82;;;3.70;;
41426;SDS011;27171;51.812;19.514;2023-03-30T13:42:31;6.50;;;3.80;;
41426;SDS011;27171;51.812;19.514;2023-03-30T13:52:31;7.50;;;3.67;;
41426;SDS011;27171;51.812;19.514;2023-03-30T13:55:36;4.90;;;3.50;;
41426;SDS011;27171;51.812;19.514;2023-03-30T13:58:42;7.03;;;3.80;;
41426;SDS011;27171;51.812;19.514;2023-03-30T14:01:54;5.93;;;3.92;;
41426;SDS011;27171;51.812;19.514;2023-03-30T14:08:14;5.20;;;3.83;;
41426;SDS011;27171;51.812;19.514;2023-03-30T14:11:19;5.18;;;3.88;;
41426;SDS011;27171;51.812;19.514;2023-03-30T14:14:25;6.32;;;3.95;;
41426;SDS011;27171;51.812;19.514;2023-03-30T14:17:30;7.03;;;3.53;;
41426;SDS011;27171;51.812;19.514;2023-03-30T14:23:56;7.15;;;4.07;;
41426;SDS011;27171;51.812;19.514;2023-03-30T14:27:05;7.40;;;3.65;;
41426;SDS011;27171;51.812;19.514;2023-03-30T14:33:21;7.25;;;4.05;;
41426;SDS011;27171;51.812;19.514;2023-03-30T14:36:22;8.18;;;5.30;;
41426;SDS011;27171;51.812;19.514;2023-03-30T14:39:23;7.38;;;4.80;;
41426;SDS011;27171;51.812;19.514;2023-03-30T14:42:26;6.53;;;4.68;;
41426;SDS011;27171;51.812;19.514;2023-03-30T14:45:30;7.90;;;5.00;;
41426;SDS011;27171;51.812;19.514;2023-03-30T14:48:37;6.35;;;3.97;;
41426;SDS011;27171;51.812;19.514;2023-03-30T14:51:41;6.78;;;5.07;;
41426;SDS011;27171;51.812;19.514;2023-03-30T14:54:43;7.68;;;5.07;;
41426;SDS011;27171;51.812;19.514;2023-03-30T14:57:46;9.13;;;5.97;;
41426;SDS011;27171;51.812;19.514;2023-03-30T15:00:48;7.25;;;5.88;;
41426;SDS011;27171;51.812;19.514;2023-03-30T15:03:49;6.97;;;5.07;;
41426;SDS011;27171;51.812;19.514;2023-03-30T15:06:52;9.38;;;5.05;;
41426;SDS011;27171;51.812;19.514;2023-03-30T15:09:54;9.13;;;5.72;;
41426;SDS011;27171;51.812;19.514;2023-03-30T15:12:57;9.60;;;5.07;;
41426;SDS011;27171;51.812;19.514;2023-03-30T15:15:58;7.47;;;5.43;;
41426;SDS011;27171;51.812;19.514;2023-03-30T15:22:29;9.57;;;6.10;;
41426;SDS011;27171;51.812;19.514;2023-03-30T15:25:36;10.35;;;6.70;;
41426;SDS011;27171;51.812;19.514;2023-03-30T15:28:43;9.23;;;5.70;;
41426;SDS011;27171;51.812;19.514;2023-03-30T15:38:27;7.72;;;5.68;;
41426;SDS011;27171;51.812;19.514;2023-03-30T15:44:47;7.70;;;5.32;;
41426;SDS011;27171;51.812;19.514;2023-03-30T15:47:59;8.00;;;5.53;;
41426;SDS011;27171;51.812;19.514;2023-03-30T15:51:02;9.20;;;5.82;;
41426;SDS011;27171;51.812;19.514;2023-03-30T15:54:13;11.13;;;5.78;;
41426;SDS011;27171;51.812;19.514;2023-03-30T15:57:18;7.63;;;4.78;;
41426;SDS011;27171;51.812;19.514;2023-03-30T16:00:20;6.55;;;5.05;;
41426;SDS011;27171;51.812;19.514;2023-03-30T16:03:38;10.85;;;6.28;;
41426;SDS011;27171;51.812;19.514;2023-03-30T16:06:49;9.05;;;5.25;;
41426;SDS011;27171;51.812;19.514;2023-03-30T16:09:51;7.93;;;5.60;;
41426;SDS011;27171;51.812;19.514;2023-03-30T16:12:53;10.77;;;6.05;;
41426;SDS011;27171;51.812;19.514;2023-03-30T16:15:55;8.52;;;5.80;;
41426;SDS011;27171;51.812;19.514;2023-03-30T16:18:56;8.35;;;6.00;;
41426;SDS011;27171;51.812;19.514;2023-03-30T16:21:57;9.50;;;6.60;;
41426;SDS011;27171;51.812;19.514;2023-03-30T16:24:59;8.60;;;5.70;;
41426;SDS011;27171;51.812;19.514;2023-03-30T16:28:00;10.38;;;6.18;;
41426;SDS011;27171;51.812;19.514;2023-03-30T16:31:02;8.80;;;6.57;;
41426;SDS011;27171;51.812;19.514;2023-03-30T16:34:06;12.63;;;7.80;;
41426;SDS011;27171;51.812;19.514;2023-03-30T16:37:08;11.93;;;7.05;;
41426;SDS011;27171;51.812;19.514;2023-03-30T16:40:12;8.95;;;6.30;;
41426;SDS011;27171;51.812;19.514;2023-03-30T16:43:32;11.50;;;6.90;;
41426;SDS011;27171;51.812;19.514;2023-03-30T16:46:33;10.13;;;6.72;;
41426;SDS011;27171;51.812;19.514;2023-03-30T16:52:35;12.18;;;7.95;;
41426;SDS011;27171;51.812;19.514;2023-03-30T16:55:36;9.85;;;7.20;;
41426;SDS011;27171;51.812;19.514;2023-03-30T16:58:38;13.85;;;7.80;;
41426;SDS011;27171;51.812;19.514;2023-03-30T17:01:40;15.52;;;8.07;;
41426;SDS011;27171;51.812;19.514;2023-03-30T17:04:41;12.05;;;7.78;;
41426;SDS011;27171;51.812;19.514;2023-03-30T17:07:46;11.48;;;7.50;;
41426;SDS011;27171;51.812;19.514;2023-03-30T17:10:50;11.65;;;6.70;;
41426;SDS011;27171;51.812;19.514;2023-03-30T17:13:53;12.07;;;6.47;;
41426;SDS011;27171;51.812;19.514;2023-03-30T17:16:54;11.27;;;6.63;;
41426;SDS011;27171;51.812;19.514;2023-03-30T17:19:55;12.70;;;7.32;;
41426;SDS011;27171;51.812;19.514;2023-03-30T17:22:58;11.40;;;6.10;;
41426;SDS011;27171;51.812;19.514;2023-03-30T17:26:00;9.07;;;6.82;;
41426;SDS011;27171;51.812;19.514;2023-03-30T17:29:02;12.20;;;7.13;;
41426;SDS011;27171;51.812;19.514;2023-03-30T17:32:04;12.98;;;7.32;;
41426;SDS011;27171;51.812;19.514;2023-03-30T17:35:09;8.70;;;5.50;;
41426;SDS011;27171;51.812;19.514;2023-03-30T17:38:10;8.90;;;5.80;;
41426;SDS011;27171;51.812;19.514;2023-03-30T17:41:12;10.23;;;6.32;;
41426;SDS011;27171;51.812;19.514;2023-03-30T17:44:14;9.32;;;5.90;;
41426;SDS011;27171;51.812;19.514;2023-03-30T17:47:15;10.50;;;5.95;;
41426;SDS011;27171;51.812;19.514;2023-03-30T17:50:21;9.25;;;5.97;;
41426;SDS011;27171;51.812;19.514;2023-03-30T17:53:32;7.28;;;5.40;;
41426;SDS011;27171;51.812;19.514;2023-03-30T17:56:33;11.02;;;5.55;;
41426;SDS011;27171;51.812;19.514;2023-03-30T18:02:35;7.78;;;5.15;;
41426;SDS011;27171;51.812;19.514;2023-03-30T18:05:36;9.25;;;5.20;;
41426;SDS011;27171;51.812;19.514;2023-03-30T18:08:37;9.23;;;5.88;;
41426;SDS011;27171;51.812;19.514;2023-03-30T18:14:39;6.97;;;4.85;;
41426;SDS011;27171;51.812;19.514;2023-03-30T18:17:40;9.55;;;5.80;;
41426;SDS011;27171;51.812;19.514;2023-03-30T18:20:42;10.07;;;5.50;;
41426;SDS011;27171;51.812;19.514;2023-03-30T18:23:43;6.63;;;4.97;;
41426;SDS011;27171;51.812;19.514;2023-03-30T18:29:45;9.35;;;5.25;;
41426;SDS011;27171;51.812;19.514;2023-03-30T18:32:46;8.98;;;5.90;;
41426;SDS011;27171;51.812;19.514;2023-03-30T18:35:48;10.00;;;5.90;;
41426;SDS011;27171;51.812;19.514;2023-03-30T18:38:50;8.48;;;6.22;;
41426;SDS011;27171;51.812;19.514;2023-03-30T18:41:51;10.95;;;7.20;;
41426;SDS011;27171;51.812;19.514;2023-03-30T18:44:53;10.68;;;6.10;;
41426;SDS011;27171;51.812;19.514;2023-03-30T18:47:54;11.27;;;7.50;;
41426;SDS011;27171;51.812;19.514;2023-03-30T18:50:56;8.85;;;6.13;;
41426;SDS011;27171;51.812;19.514;2023-03-30T18:53:57;10.27;;;6.53;;
41426;SDS011;27171;51.812;19.514;2023-03-30T18:56:58;10.30;;;7.78;;
41426;SDS011;27171;51.812;19.514;2023-03-30T19:00:00;8.98;;;6.20;;
41426;SDS011;27171;51.812;19.514;2023-03-30T19:03:01;8.25;;;6.10;;
41426;SDS011;27171;51.812;19.514;2023-03-30T19:06:02;8.07;;;6.20;;
41426;SDS011;27171;51.812;19.514;2023-03-30T19:09:03;9.15;;;6.38;;
41426;SDS011;27171;51.812;19.514;2023-03-30T19:12:04;9.85;;;6.15;;
41426;SDS011;27171;51.812;19.514;2023-03-30T19:15:06;8.60;;;5.70;;
41426;SDS011;27171;51.812;19.514;2023-03-30T19:18:20;8.38;;;5.45;;
41426;SDS011;27171;51.812;19.514;2023-03-30T19:21:21;8.27;;;4.88;;
41426;SDS011;27171;51.812;19.514;2023-03-30T19:24:22;7.75;;;5.20;;
41426;SDS011;27171;51.812;19.514;2023-03-30T19:27:24;9.02;;;4.95;;
41426;SDS011;27171;51.812;19.514;2023-03-30T19:30:25;10.20;;;6.38;;
41426;SDS011;27171;51.812;19.514;2023-03-30T19:33:27;10.55;;;6.57;;
41426;SDS011;27171;51.812;19.514;2023-03-30T19:36:28;12.73;;;7.95;;
41426;SDS011;27171;51.812;19.514;2023-03-30T19:39:29;12.88;;;7.15;;
41426;SDS011;27171;51.812;19.514;2023-03-30T19:42:31;10.02;;;6.30;;
41426;SDS011;27171;51.812;19.514;2023-03-30T19:45:35;8.35;;;6.65;;
41426;SDS011;27171;51.812;19.514;2023-03-30T19:48:37;10.55;;;7.20;;
41426;SDS011;27171;51.812;19.514;2023-03-30T19:51:38;10.57;;;7.43;;
41426;SDS011;27171;51.812;19.514;2023-03-30T19:54:39;8.38;;;6.40;;
41426;SDS011;27171;51.812;19.514;2023-03-30T19:57:40;9.15;;;6.22;;
41426;SDS011;27171;51.812;19.514;2023-03-30T20:00:41;8.40;;;5.60;;
41426;SDS011;27171;51.812;19.514;2023-03-30T20:03:43;8.23;;;5.53;;
41426;SDS011;27171;51.812;19.514;2023-03-30T20:06:45;7.05;;;6.10;;
41426;SDS011;27171;51.812;19.514;2023-03-30T20:09:46;7.60;;;5.22;;
41426;SDS011;27171;51.812;19.514;2023-03-30T20:12:47;8.98;;;5.80;;
41426;SDS011;27171;51.812;19.514;2023-03-30T20:15:53;9.10;;;6.05;;
41426;SDS011;27171;51.812;19.514;2023-03-30T20:18:55;8.10;;;6.50;;
41426;SDS011;27171;51.812;19.514;2023-03-30T20:24:57;9.70;;;5.65;;
41426;SDS011;27171;51.812;19.514;2023-03-30T20:27:58;9.00;;;6.82;;
41426;SDS011;27171;51.812;19.514;2023-03-30T20:31:00;10.45;;;6.88;;
41426;SDS011;27171;51.812;19.514;2023-03-30T20:34:01;12.20;;;7.88;;
41426;SDS011;27171;51.812;19.514;2023-03-30T20:37:02;8.65;;;7.13;;
41426;SDS011;27171;51.812;19.514;2023-03-30T20:40:04;10.75;;;8.70;;
41426;SDS011;27171;51.812;19.514;2023-03-30T20:43:07;12.73;;;9.05;;
41426;SDS011;27171;51.812;19.514;2023-03-30T20:46:08;12.32;;;8.20;;
41426;SDS011;27171;51.812;19.514;2023-03-30T20:49:10;9.95;;;7.85;;
41426;SDS011;27171;51.812;19.514;2023-03-30T20:52:11;10.68;;;8.40;;
41426;SDS011;27171;51.812;19.514;2023-03-30T20:55:12;10.00;;;7.72;;
41426;SDS011;27171;51.812;19.514;2023-03-30T20:58:13;11.13;;;8.68;;
41426;SDS011;27171;51.812;19.514;2023-03-30T21:01:19;11.00;;;8.20;;
41426;SDS011;27171;51.812;19.514;2023-03-30T21:04:21;11.25;;;8.38;;
41426;SDS011;27171;51.812;19.514;2023-03-30T21:07:22;9.55;;;7.80;;
41426;SDS011;27171;51.812;19.514;2023-03-30T21:10:23;10.93;;;8.05;;
41426;SDS011;27171;51.812;19.514;2023-03-30T21:22:28;10.38;;;7.18;;
41426;SDS011;27171;51.812;19.514;2023-03-30T21:28:30;12.35;;;9.00;;
41426;SDS011;27171;51.812;19.514;2023-03-30T21:31:32;12.30;;;9.30;;
41426;SDS011;27171;51.812;19.514;2023-03-30T21:34:33;11.20;;;8.77;;
41426;SDS011;27171;51.812;19.514;2023-03-30T21:40:35;11.65;;;8.65;;
41426;SDS011;27171;51.812;19.514;2023-03-30T21:43:37;12.18;;;8.52;;
41426;SDS011;27171;51.812;19.514;2023-03-30T21:46:40;11.32;;;8.52;;
41426;SDS011;27171;51.812;19.514;2023-03-30T21:52:42;10.65;;;7.72;;
41426;SDS011;27171;51.812;19.514;2023-03-30T21:55:46;11.40;;;9.40;;
41426;SDS011;27171;51.812;19.514;2023-03-30T21:58:47;11.88;;;9.30;;
41426;SDS011;27171;51.812;19.514;2023-03-30T22:01:48;11.70;;;8.93;;
41426;SDS011;27171;51.812;19.514;2023-03-30T22:04:49;12.10;;;10.05;;
41426;SDS011;27171;51.812;19.514;2023-03-30T22:10:58;14.32;;;10.15;;
41426;SDS011;27171;51.812;19.514;2023-03-30T22:14:04;10.50;;;8.35;;
41426;SDS011;27171;51.812;19.514;2023-03-30T22:17:05;11.10;;;8.70;;
41426;SDS011;27171;51.812;19.514;2023-03-30T22:23:08;9.57;;;7.15;;
41426;SDS011;27171;51.812;19.514;2023-03-30T22:29:11;10.90;;;7.13;;
41426;SDS011;27171;51.812;19.514;2023-03-30T22:32:12;11.13;;;8.20;;
41426;SDS011;27171;51.812;19.514;2023-03-30T22:35:13;11.52;;;7.72;;
41426;SDS011;27171;51.812;19.514;2023-03-30T22:38:14;9.77;;;7.57;;
41426;SDS011;27171;51.812;19.514;2023-03-30T22:41:16;9.82;;;7.97;;
41426;SDS011;27171;51.812;19.514;2023-03-30T22:44:17;10.23;;;7.50;;
41426;SDS011;27171;51.812;19.514;2023-03-30T22:47:19;11.02;;;7.28;;
41426;SDS011;27171;51.812;19.514;2023-03-30T22:56:22;8.07;;;5.53;;
41426;SDS011;27171;51.812;19.514;2023-03-30T22:59:23;11.05;;;6.93;;
41426;SDS011;27171;51.812;19.514;2023-03-30T23:02:24;8.68;;;5.95;;
41426;SDS011;27171;51.812;19.514;2023-03-30T23:08:29;8.38;;;5.65;;